Zim Luanda — 9HA2029 — position and weather

sailwx.info

Track history (hours):
 
Tides and Currents Weather Stations Pressure Air Temp Water Temp Dewpoint Dewpoint Depression Visibility Wind Speed Wind Dir Waves Ship Positions

Zim Luanda

Last reported at 2015-May-22 18:31 UTC. Time now 2015-May-22 19:10 UTC.
Position N 40°41' W 074°09'.

Length 260 m; draft 12.2 m.

Type: Ship (hazmat cat A). MMSI: 249830000.

Date/timePositionNaut miles runAvg speedWind from/ knotsBaromVisibWave heightAir tempDewpointWater temp
2015-May-22 18:31N 40°41' W 074°09'0 0.0
2015-May-22 17:31N 40°41' W 074°09'0 0.0
2015-May-22 16:31N 40°41' W 074°09'0 0.0
2015-May-22 15:26N 40°41' W 074°09'2 2.4
2015-May-22 14:33N 40°39' W 074°09'6 6.3
2015-May-22 13:34N 40°35' W 074°02'1211.9
2015-May-22 12:33N 40°28' W 073°50'10 9.7
2015-May-22 11:33N 40°28' W 073°37'2116.6
2015-May-22 10:19N 40°29' W 073°10'1316.5
2015-May-22 09:33N 40°30' W 072°54'1616.4
2015-May-22 08:33N 40°30' W 072°32'1616.4
2015-May-22 07:34N 40°31' W 072°10'1716.7
2015-May-22 06:34N 40°32' W 071°48'1716.7
2015-May-22 05:34N 40°32' W 071°26'1716.6
2015-May-22 04:34N 40°32' W 071°05'1916.7
2015-May-22 03:26N 40°33' W 070°40'1516.8
2015-May-22 02:34N 40°33' W 070°21'1816.9
2015-May-22 01:29N 40°34' W 069°57'1617.1
2015-May-22 00:33N 40°34' W 069°36'1917.3
2015-May-21 23:28N 40°35' W 069°11'2116.6
2015-May-21 22:13N 40°41' W 068°45'1116.9
2015-May-21 21:34N 40°47' W 068°32'1616.4
2015-May-21 20:34N 40°54' W 068°13'  
2015-May-16 01:27N 40°52' W 030°38'1914.9
2015-May-16 00:11N 40°49' W 030°13'914.6
2015-May-15 23:33N 40°48' W 030°01'1514.8
2015-May-15 22:33N 40°45' W 029°42'1514.8
2015-May-15 21:33N 40°42' W 029°23'1614.6
2015-May-15 20:26N 40°40' W 029°01'1414.8
2015-May-15 19:31N 40°37' W 028°44'1615.0
2015-May-15 18:28N 40°34' W 028°23'1615.1
2015-May-15 17:23N 40°32' W 028°02'1315.0
2015-May-15 16:30N 40°29' W 027°45'1414.7
2015-May-15 15:34N 40°26' W 027°27'2014.9
2015-May-15 14:15N 40°22' W 027°02'1215.1
2015-May-15 13:29N 40°20' W 026°47'1414.8
2015-May-15 12:34N 40°18' W 026°29'1715.1
2015-May-15 11:28N 40°15' W 026°08'1415.0
2015-May-15 10:30N 40°12' W 025°49'1415.1
2015-May-15 09:34N 40°09' W 025°31'1515.2
2015-May-15 08:33N 40°07' W 025°12'1515.2
2015-May-15 07:32N 40°03' W 024°52'1514.9
2015-May-15 06:33N 39°60' W 024°34'1515.0
2015-May-15 05:33N 39°56' W 024°15'1515.1
2015-May-15 04:33N 39°53' W 023°55'1514.8
2015-May-15 03:33N 39°49' W 023°37'1514.8
2015-May-15 02:33N 39°45' W 023°18'1514.8
2015-May-15 01:33N 39°42' W 022°59'1514.9
2015-May-15 00:32N 39°38' W 022°40'1414.7
2015-May-14 23:33N 39°35' W 022°22'1514.7
2015-May-14 22:33N 39°31' W 022°04'1414.5
2015-May-14 21:33N 39°28' W 021°45'34214.8
2015-May-13 22:27N 37°51' W 014°45'6214.9
2015-May-13 18:17N 37°30' W 013°31'1115.1
2015-May-13 17:32N 37°26' W 013°18'3014.9
2015-May-13 15:32N 37°16' W 012°43'1514.9
2015-May-13 14:32N 37°10' W 012°25'1414.7
2015-May-13 13:33N 37°05' W 012°08'1614.8
2015-May-13 12:26N 36°60' W 011°49'1814.9
2015-May-13 11:15N 36°54' W 011°28'1014.3
2015-May-13 10:33N 36°50' W 011°16'1414.4
2015-May-13 09:33N 36°46' W 010°59'1514.5
2015-May-13 08:33N 36°41' W 010°42'1514.5
2015-May-13 07:32N 36°35' W 010°25'1414.5
2015-May-13 06:33N 36°30' W 010°09'1414.4
2015-May-13 05:33N 36°25' W 009°52'1414.3
2015-May-13 04:34N 36°20' W 009°36'1414.4
2015-May-13 03:33N 36°15' W 009°19'1414.5
2015-May-13 02:34N 36°09' W 009°02'1515.0
2015-May-13 01:34N 36°03' W 008°45'1515.1
2015-May-13 00:33N 35°60' W 008°27'1514.9
2015-May-12 23:33N 35°59' W 008°09'1515.0
2015-May-12 22:33N 35°59' W 007°50'1515.0
2015-May-12 21:33N 35°59' W 007°31'1515.0
2015-May-12 20:33N 35°59' W 007°13'1515.1
2015-May-12 19:33N 35°59' W 006°54'1514.9
2015-May-12 18:33N 35°59' W 006°36'  
Track history (hours):
 
Tides and Currents Weather Stations Pressure Air Temp Water Temp Dewpoint Dewpoint Depression Visibility Wind Speed Wind Dir Waves Ship Positions

Zim Luanda

Last reported at 2015-May-22 18:31 UTC. Time now 2015-May-22 19:10 UTC.
Position N 40°41' W 074°09'.

Length 260 m; draft 12.2 m.

Type: Ship (hazmat cat A). MMSI: 249830000.

Date/timePositionNaut miles runAvg speedWind from/ knotsBaromVisibWave heightAir tempDewpointWater temp
2015-May-22 18:31N 40°41' W 074°09'0 0.0
2015-May-22 17:31N 40°41' W 074°09'0 0.0
2015-May-22 16:31N 40°41' W 074°09'0 0.0
2015-May-22 15:26N 40°41' W 074°09'2 2.4
2015-May-22 14:33N 40°39' W 074°09'6 6.3
2015-May-22 13:34N 40°35' W 074°02'1211.9
2015-May-22 12:33N 40°28' W 073°50'10 9.7
2015-May-22 11:33N 40°28' W 073°37'2116.6
2015-May-22 10:19N 40°29' W 073°10'1316.5
2015-May-22 09:33N 40°30' W 072°54'1616.4
2015-May-22 08:33N 40°30' W 072°32'1616.4
2015-May-22 07:34N 40°31' W 072°10'1716.7
2015-May-22 06:34N 40°32' W 071°48'1716.7
2015-May-22 05:34N 40°32' W 071°26'1716.6
2015-May-22 04:34N 40°32' W 071°05'1916.7
2015-May-22 03:26N 40°33' W 070°40'1516.8
2015-May-22 02:34N 40°33' W 070°21'1816.9
2015-May-22 01:29N 40°34' W 069°57'1617.1
2015-May-22 00:33N 40°34' W 069°36'1917.3
2015-May-21 23:28N 40°35' W 069°11'2116.6
2015-May-21 22:13N 40°41' W 068°45'1116.9
2015-May-21 21:34N 40°47' W 068°32'1616.4
2015-May-21 20:34N 40°54' W 068°13'  
2015-May-16 01:27N 40°52' W 030°38'1914.9
2015-May-16 00:11N 40°49' W 030°13'914.6
2015-May-15 23:33N 40°48' W 030°01'1514.8
2015-May-15 22:33N 40°45' W 029°42'1514.8
2015-May-15 21:33N 40°42' W 029°23'1614.6
2015-May-15 20:26N 40°40' W 029°01'1414.8
2015-May-15 19:31N 40°37' W 028°44'1615.0
2015-May-15 18:28N 40°34' W 028°23'1615.1
2015-May-15 17:23N 40°32' W 028°02'1315.0
2015-May-15 16:30N 40°29' W 027°45'1414.7
2015-May-15 15:34N 40°26' W 027°27'2014.9
2015-May-15 14:15N 40°22' W 027°02'1215.1
2015-May-15 13:29N 40°20' W 026°47'1414.8
2015-May-15 12:34N 40°18' W 026°29'1715.1
2015-May-15 11:28N 40°15' W 026°08'1415.0
2015-May-15 10:30N 40°12' W 025°49'1415.1
2015-May-15 09:34N 40°09' W 025°31'1515.2
2015-May-15 08:33N 40°07' W 025°12'1515.2
2015-May-15 07:32N 40°03' W 024°52'1514.9
2015-May-15 06:33N 39°60' W 024°34'1515.0
2015-May-15 05:33N 39°56' W 024°15'1515.1
2015-May-15 04:33N 39°53' W 023°55'1514.8
2015-May-15 03:33N 39°49' W 023°37'1514.8
2015-May-15 02:33N 39°45' W 023°18'1514.8
2015-May-15 01:33N 39°42' W 022°59'1514.9
2015-May-15 00:32N 39°38' W 022°40'1414.7
2015-May-14 23:33N 39°35' W 022°22'1514.7
2015-May-14 22:33N 39°31' W 022°04'1414.5
2015-May-14 21:33N 39°28' W 021°45'34214.8
2015-May-13 22:27N 37°51' W 014°45'6214.9
2015-May-13 18:17N 37°30' W 013°31'1115.1
2015-May-13 17:32N 37°26' W 013°18'3014.9
2015-May-13 15:32N 37°16' W 012°43'1514.9
2015-May-13 14:32N 37°10' W 012°25'1414.7
2015-May-13 13:33N 37°05' W 012°08'1614.8
2015-May-13 12:26N 36°60' W 011°49'1814.9
2015-May-13 11:15N 36°54' W 011°28'1014.3
2015-May-13 10:33N 36°50' W 011°16'1414.4
2015-May-13 09:33N 36°46' W 010°59'1514.5
2015-May-13 08:33N 36°41' W 010°42'1514.5
2015-May-13 07:32N 36°35' W 010°25'1414.5
2015-May-13 06:33N 36°30' W 010°09'1414.4
2015-May-13 05:33N 36°25' W 009°52'1414.3
2015-May-13 04:34N 36°20' W 009°36'1414.4
2015-May-13 03:33N 36°15' W 009°19'1414.5
2015-May-13 02:34N 36°09' W 009°02'1515.0
2015-May-13 01:34N 36°03' W 008°45'1515.1
2015-May-13 00:33N 35°60' W 008°27'1514.9
2015-May-12 23:33N 35°59' W 008°09'1515.0
2015-May-12 22:33N 35°59' W 007°50'1515.0
2015-May-12 21:33N 35°59' W 007°31'1515.0
2015-May-12 20:33N 35°59' W 007°13'1515.1
2015-May-12 19:33N 35°59' W 006°54'1514.9
2015-May-12 18:33N 35°59' W 006°36'  

Dump ship's entire track history